sensor_id;sensor_type;location;lat;lon;timestamp;P1;durP1;ratioP1;P2;durP2;ratioP2
26201;SDS011;13944;28.562;77.188;2023-05-10T00:00:06;202.15;;;100.63;;
26201;SDS011;13944;28.562;77.188;2023-05-10T00:02:34;201.15;;;101.40;;
26201;SDS011;13944;28.562;77.188;2023-05-10T00:05:01;192.50;;;100.63;;
26201;SDS011;13944;28.562;77.188;2023-05-10T00:07:28;181.07;;;100.60;;
26201;SDS011;13944;28.562;77.188;2023-05-10T00:09:54;196.85;;;99.30;;
26201;SDS011;13944;28.562;77.188;2023-05-10T00:12:21;194.82;;;103.07;;
26201;SDS011;13944;28.562;77.188;2023-05-10T00:14:47;183.50;;;100.13;;
26201;SDS011;13944;28.562;77.188;2023-05-10T00:17:14;216.18;;;101.57;;
26201;SDS011;13944;28.562;77.188;2023-05-10T00:19:40;218.40;;;101.00;;
26201;SDS011;13944;28.562;77.188;2023-05-10T00:22:07;219.93;;;99.97;;
26201;SDS011;13944;28.562;77.188;2023-05-10T00:24:33;192.65;;;98.85;;
26201;SDS011;13944;28.562;77.188;2023-05-10T00:27:00;191.52;;;99.72;;
26201;SDS011;13944;28.562;77.188;2023-05-10T00:29:29;188.20;;;97.07;;
26201;SDS011;13944;28.562;77.188;2023-05-10T00:31:56;186.30;;;95.35;;
26201;SDS011;13944;28.562;77.188;2023-05-10T00:34:23;195.80;;;99.80;;
26201;SDS011;13944;28.562;77.188;2023-05-10T00:36:50;201.93;;;101.93;;
26201;SDS011;13944;28.562;77.188;2023-05-10T00:39:16;242.00;;;102.57;;
26201;SDS011;13944;28.562;77.188;2023-05-10T00:41:43;263.27;;;106.32;;
26201;SDS011;13944;28.562;77.188;2023-05-10T00:44:10;250.93;;;106.85;;
26201;SDS011;13944;28.562;77.188;2023-05-10T00:46:36;254.38;;;107.35;;
26201;SDS011;13944;28.562;77.188;2023-05-10T00:49:03;231.30;;;108.95;;
26201;SDS011;13944;28.562;77.188;2023-05-10T00:51:30;228.35;;;109.03;;
26201;SDS011;13944;28.562;77.188;2023-05-10T00:53:56;213.85;;;105.43;;
26201;SDS011;13944;28.562;77.188;2023-05-10T00:56:23;224.63;;;106.95;;
26201;SDS011;13944;28.562;77.188;2023-05-10T00:58:50;268.13;;;110.20;;
26201;SDS011;13944;28.562;77.188;2023-05-10T01:01:17;609.00;;;134.38;;
26201;SDS011;13944;28.562;77.188;2023-05-10T01:03:43;405.30;;;116.18;;
26201;SDS011;13944;28.562;77.188;2023-05-10T01:06:10;297.75;;;109.18;;
26201;SDS011;13944;28.562;77.188;2023-05-10T01:08:39;242.43;;;107.05;;
26201;SDS011;13944;28.562;77.188;2023-05-10T01:11:06;286.67;;;110.00;;
26201;SDS011;13944;28.562;77.188;2023-05-10T01:13:33;323.10;;;112.60;;
26201;SDS011;13944;28.562;77.188;2023-05-10T01:16:01;235.18;;;106.38;;
26201;SDS011;13944;28.562;77.188;2023-05-10T01:18:33;234.73;;;109.85;;
26201;SDS011;13944;28.562;77.188;2023-05-10T01:21:09;227.35;;;110.32;;
26201;SDS011;13944;28.562;77.188;2023-05-10T01:26:23;223.05;;;110.88;;
26201;SDS011;13944;28.562;77.188;2023-05-10T01:34:23;250.00;;;125.88;;
26201;SDS011;13944;28.562;77.188;2023-05-10T01:36:55;258.15;;;123.72;;
26201;SDS011;13944;28.562;77.188;2023-05-10T01:39:29;264.55;;;131.30;;
26201;SDS011;13944;28.562;77.188;2023-05-10T01:44:27;267.40;;;132.00;;
26201;SDS011;13944;28.562;77.188;2023-05-10T01:46:58;262.27;;;136.40;;
26201;SDS011;13944;28.562;77.188;2023-05-10T01:49:29;264.95;;;134.32;;
26201;SDS011;13944;28.562;77.188;2023-05-10T01:51:59;261.50;;;133.77;;
26201;SDS011;13944;28.562;77.188;2023-05-10T01:54:26;263.83;;;131.98;;
26201;SDS011;13944;28.562;77.188;2023-05-10T01:56:59;243.38;;;130.60;;
26201;SDS011;13944;28.562;77.188;2023-05-10T01:59:28;287.55;;;130.95;;
26201;SDS011;13944;28.562;77.188;2023-05-10T02:01:57;216.13;;;99.95;;
26201;SDS011;13944;28.562;77.188;2023-05-10T02:04:25;243.10;;;121.32;;
26201;SDS011;13944;28.562;77.188;2023-05-10T02:06:52;196.55;;;102.40;;
26201;SDS011;13944;28.562;77.188;2023-05-10T02:09:20;183.13;;;98.68;;
26201;SDS011;13944;28.562;77.188;2023-05-10T02:11:47;182.68;;;94.72;;
26201;SDS011;13944;28.562;77.188;2023-05-10T02:14:14;166.65;;;94.32;;
26201;SDS011;13944;28.562;77.188;2023-05-10T02:16:42;162.93;;;88.07;;
26201;SDS011;13944;28.562;77.188;2023-05-10T02:19:09;175.27;;;91.53;;
26201;SDS011;13944;28.562;77.188;2023-05-10T02:21:37;147.98;;;78.88;;
26201;SDS011;13944;28.562;77.188;2023-05-10T02:24:04;196.52;;;101.20;;
26201;SDS011;13944;28.562;77.188;2023-05-10T02:26:31;154.20;;;85.95;;
26201;SDS011;13944;28.562;77.188;2023-05-10T02:28:58;143.98;;;79.20;;
26201;SDS011;13944;28.562;77.188;2023-05-10T02:31:25;166.40;;;83.10;;
26201;SDS011;13944;28.562;77.188;2023-05-10T02:33:52;159.20;;;85.65;;
26201;SDS011;13944;28.562;77.188;2023-05-10T02:36:19;149.70;;;79.80;;
26201;SDS011;13944;28.562;77.188;2023-05-10T02:38:47;155.65;;;78.45;;
26201;SDS011;13944;28.562;77.188;2023-05-10T02:41:14;161.18;;;85.47;;
26201;SDS011;13944;28.562;77.188;2023-05-10T02:43:41;173.38;;;93.55;;
26201;SDS011;13944;28.562;77.188;2023-05-10T02:46:08;141.95;;;78.35;;
26201;SDS011;13944;28.562;77.188;2023-05-10T02:48:34;156.68;;;84.15;;
26201;SDS011;13944;28.562;77.188;2023-05-10T02:51:04;153.55;;;83.63;;
26201;SDS011;13944;28.562;77.188;2023-05-10T02:53:31;166.82;;;90.28;;
26201;SDS011;13944;28.562;77.188;2023-05-10T02:56:00;160.63;;;87.35;;
26201;SDS011;13944;28.562;77.188;2023-05-10T02:58:29;153.60;;;85.57;;
26201;SDS011;13944;28.562;77.188;2023-05-10T03:00:55;163.80;;;88.85;;
26201;SDS011;13944;28.562;77.188;2023-05-10T03:03:22;151.30;;;81.47;;
26201;SDS011;13944;28.562;77.188;2023-05-10T03:05:48;160.00;;;86.63;;
26201;SDS011;13944;28.562;77.188;2023-05-10T03:08:15;153.00;;;85.93;;
26201;SDS011;13944;28.562;77.188;2023-05-10T03:10:45;161.07;;;87.45;;
26201;SDS011;13944;28.562;77.188;2023-05-10T03:13:32;152.00;;;85.53;;
26201;SDS011;13944;28.562;77.188;2023-05-10T03:16:09;159.25;;;84.43;;
26201;SDS011;13944;28.562;77.188;2023-05-10T03:18:42;144.65;;;78.40;;
26201;SDS011;13944;28.562;77.188;2023-05-10T03:21:10;148.13;;;80.25;;
26201;SDS011;13944;28.562;77.188;2023-05-10T03:23:46;154.18;;;81.07;;
26201;SDS011;13944;28.562;77.188;2023-05-10T03:26:15;137.35;;;79.40;;
26201;SDS011;13944;28.562;77.188;2023-05-10T03:28:43;132.88;;;70.70;;
26201;SDS011;13944;28.562;77.188;2023-05-10T03:31:13;119.78;;;68.65;;
26201;SDS011;13944;28.562;77.188;2023-05-10T03:33:50;132.07;;;65.85;;
26201;SDS011;13944;28.562;77.188;2023-05-10T03:36:17;115.80;;;64.70;;
26201;SDS011;13944;28.562;77.188;2023-05-10T03:38:44;95.05;;;54.78;;
26201;SDS011;13944;28.562;77.188;2023-05-10T03:41:11;114.07;;;59.00;;
26201;SDS011;13944;28.562;77.188;2023-05-10T03:43:37;98.43;;;54.63;;
26201;SDS011;13944;28.562;77.188;2023-05-10T03:46:04;93.53;;;54.03;;
26201;SDS011;13944;28.562;77.188;2023-05-10T03:48:34;93.30;;;47.60;;
26201;SDS011;13944;28.562;77.188;2023-05-10T03:51:00;74.82;;;40.78;;
26201;SDS011;13944;28.562;77.188;2023-05-10T03:53:27;72.90;;;40.25;;
26201;SDS011;13944;28.562;77.188;2023-05-10T03:55:53;85.78;;;43.40;;
26201;SDS011;13944;28.562;77.188;2023-05-10T03:58:20;80.20;;;40.00;;
26201;SDS011;13944;28.562;77.188;2023-05-10T04:00:47;64.40;;;34.80;;
26201;SDS011;13944;28.562;77.188;2023-05-10T04:03:13;70.05;;;36.63;;
26201;SDS011;13944;28.562;77.188;2023-05-10T04:05:40;54.55;;;30.88;;
26201;SDS011;13944;28.562;77.188;2023-05-10T04:08:06;57.08;;;31.40;;
26201;SDS011;13944;28.562;77.188;2023-05-10T04:10:33;49.08;;;27.90;;
26201;SDS011;13944;28.562;77.188;2023-05-10T04:12:59;49.90;;;27.05;;
26201;SDS011;13944;28.562;77.188;2023-05-10T04:15:26;42.80;;;27.13;;
26201;SDS011;13944;28.562;77.188;2023-05-10T04:17:53;50.15;;;27.70;;
26201;SDS011;13944;28.562;77.188;2023-05-10T04:20:19;49.80;;;24.60;;
26201;SDS011;13944;28.562;77.188;2023-05-10T04:22:46;52.05;;;25.33;;
26201;SDS011;13944;28.562;77.188;2023-05-10T04:25:12;45.60;;;26.15;;
26201;SDS011;13944;28.562;77.188;2023-05-10T04:27:39;46.45;;;26.65;;
26201;SDS011;13944;28.562;77.188;2023-05-10T04:30:05;48.20;;;26.42;;
26201;SDS011;13944;28.562;77.188;2023-05-10T04:32:32;42.88;;;27.05;;
26201;SDS011;13944;28.562;77.188;2023-05-10T04:34:59;57.65;;;27.58;;
26201;SDS011;13944;28.562;77.188;2023-05-10T04:37:28;49.30;;;26.33;;
26201;SDS011;13944;28.562;77.188;2023-05-10T04:39:54;46.70;;;26.38;;
26201;SDS011;13944;28.562;77.188;2023-05-10T04:42:21;42.22;;;24.10;;
26201;SDS011;13944;28.562;77.188;2023-05-10T04:44:47;43.23;;;22.93;;
26201;SDS011;13944;28.562;77.188;2023-05-10T04:47:16;39.42;;;21.75;;
26201;SDS011;13944;28.562;77.188;2023-05-10T04:49:42;36.42;;;19.55;;
26201;SDS011;13944;28.562;77.188;2023-05-10T04:52:09;33.83;;;18.38;;
26201;SDS011;13944;28.562;77.188;2023-05-10T04:54:36;34.90;;;18.20;;
26201;SDS011;13944;28.562;77.188;2023-05-10T04:57:03;31.85;;;16.10;;
26201;SDS011;13944;28.562;77.188;2023-05-10T04:59:29;28.70;;;14.70;;
26201;SDS011;13944;28.562;77.188;2023-05-10T05:01:56;33.90;;;14.77;;
26201;SDS011;13944;28.562;77.188;2023-05-10T05:04:22;25.05;;;14.15;;
26201;SDS011;13944;28.562;77.188;2023-05-10T05:06:49;25.30;;;13.55;;
26201;SDS011;13944;28.562;77.188;2023-05-10T05:09:15;22.27;;;13.13;;
26201;SDS011;13944;28.562;77.188;2023-05-10T05:11:42;36.22;;;15.35;;
26201;SDS011;13944;28.562;77.188;2023-05-10T05:14:08;25.90;;;13.90;;
26201;SDS011;13944;28.562;77.188;2023-05-10T05:16:35;33.55;;;14.90;;
26201;SDS011;13944;28.562;77.188;2023-05-10T05:19:01;28.05;;;16.88;;
26201;SDS011;13944;28.562;77.188;2023-05-10T05:21:28;29.70;;;15.18;;
26201;SDS011;13944;28.562;77.188;2023-05-10T05:23:55;35.25;;;17.65;;
26201;SDS011;13944;28.562;77.188;2023-05-10T05:26:21;26.15;;;15.77;;
26201;SDS011;13944;28.562;77.188;2023-05-10T05:28:48;37.97;;;14.30;;
26201;SDS011;13944;28.562;77.188;2023-05-10T05:31:17;30.05;;;14.30;;
26201;SDS011;13944;28.562;77.188;2023-05-10T05:33:44;27.00;;;14.27;;
26201;SDS011;13944;28.562;77.188;2023-05-10T05:36:11;24.98;;;13.45;;
26201;SDS011;13944;28.562;77.188;2023-05-10T05:38:37;28.52;;;13.30;;
26201;SDS011;13944;28.562;77.188;2023-05-10T05:41:04;27.35;;;12.50;;
26201;SDS011;13944;28.562;77.188;2023-05-10T05:43:30;23.10;;;12.00;;
26201;SDS011;13944;28.562;77.188;2023-05-10T05:45:57;19.17;;;10.15;;
26201;SDS011;13944;28.562;77.188;2023-05-10T05:48:23;22.08;;;11.13;;
26201;SDS011;13944;28.562;77.188;2023-05-10T05:50:53;26.17;;;12.05;;
26201;SDS011;13944;28.562;77.188;2023-05-10T05:53:21;21.95;;;11.07;;
26201;SDS011;13944;28.562;77.188;2023-05-10T05:55:54;23.83;;;13.38;;
26201;SDS011;13944;28.562;77.188;2023-05-10T05:58:24;23.20;;;12.38;;
26201;SDS011;13944;28.562;77.188;2023-05-10T06:00:51;27.17;;;12.55;;
26201;SDS011;13944;28.562;77.188;2023-05-10T06:03:18;25.92;;;12.32;;
26201;SDS011;13944;28.562;77.188;2023-05-10T06:05:44;26.00;;;13.60;;
26201;SDS011;13944;28.562;77.188;2023-05-10T06:08:11;25.42;;;13.00;;
26201;SDS011;13944;28.562;77.188;2023-05-10T06:10:37;25.42;;;13.73;;
26201;SDS011;13944;28.562;77.188;2023-05-10T06:13:04;31.38;;;13.35;;
26201;SDS011;13944;28.562;77.188;2023-05-10T06:15:30;23.05;;;12.82;;
26201;SDS011;13944;28.562;77.188;2023-05-10T06:17:57;25.02;;;13.07;;
26201;SDS011;13944;28.562;77.188;2023-05-10T06:20:24;23.10;;;11.75;;
26201;SDS011;13944;28.562;77.188;2023-05-10T06:22:51;22.33;;;12.68;;
26201;SDS011;13944;28.562;77.188;2023-05-10T06:25:17;22.02;;;12.07;;
26201;SDS011;13944;28.562;77.188;2023-05-10T06:27:44;24.25;;;12.40;;
26201;SDS011;13944;28.562;77.188;2023-05-10T06:30:10;26.17;;;13.00;;
26201;SDS011;13944;28.562;77.188;2023-05-10T06:32:38;18.08;;;9.70;;
26201;SDS011;13944;28.562;77.188;2023-05-10T06:35:05;25.23;;;11.25;;
26201;SDS011;13944;28.562;77.188;2023-05-10T06:37:33;21.52;;;12.20;;
26201;SDS011;13944;28.562;77.188;2023-05-10T06:39:59;22.67;;;11.52;;
26201;SDS011;13944;28.562;77.188;2023-05-10T06:42:27;21.80;;;12.18;;
26201;SDS011;13944;28.562;77.188;2023-05-10T06:44:56;22.25;;;12.20;;
26201;SDS011;13944;28.562;77.188;2023-05-10T06:47:23;22.63;;;13.10;;
26201;SDS011;13944;28.562;77.188;2023-05-10T06:49:50;26.98;;;15.45;;
26201;SDS011;13944;28.562;77.188;2023-05-10T06:52:16;30.63;;;16.85;;
26201;SDS011;13944;28.562;77.188;2023-05-10T06:54:43;27.95;;;15.25;;
26201;SDS011;13944;28.562;77.188;2023-05-10T06:57:09;28.35;;;15.40;;
26201;SDS011;13944;28.562;77.188;2023-05-10T06:59:36;30.77;;;16.77;;
26201;SDS011;13944;28.562;77.188;2023-05-10T07:02:02;30.50;;;16.13;;
26201;SDS011;13944;28.562;77.188;2023-05-10T07:04:29;25.45;;;15.20;;
26201;SDS011;13944;28.562;77.188;2023-05-10T07:06:56;25.77;;;15.15;;
26201;SDS011;13944;28.562;77.188;2023-05-10T07:09:22;29.17;;;16.25;;
26201;SDS011;13944;28.562;77.188;2023-05-10T07:11:49;24.75;;;14.77;;
26201;SDS011;13944;28.562;77.188;2023-05-10T07:14:16;23.75;;;12.52;;
26201;SDS011;13944;28.562;77.188;2023-05-10T07:16:42;27.65;;;13.80;;
26201;SDS011;13944;28.562;77.188;2023-05-10T07:19:09;33.88;;;14.75;;
26201;SDS011;13944;28.562;77.188;2023-05-10T07:21:36;23.05;;;13.05;;
26201;SDS011;13944;28.562;77.188;2023-05-10T07:24:02;24.73;;;14.32;;
26201;SDS011;13944;28.562;77.188;2023-05-10T07:26:29;27.05;;;14.18;;
26201;SDS011;13944;28.562;77.188;2023-05-10T07:28:56;25.85;;;12.25;;
26201;SDS011;13944;28.562;77.188;2023-05-10T07:31:22;27.10;;;13.20;;
26201;SDS011;13944;28.562;77.188;2023-05-10T07:33:49;25.88;;;13.57;;
26201;SDS011;13944;28.562;77.188;2023-05-10T07:36:16;27.77;;;13.57;;
26201;SDS011;13944;28.562;77.188;2023-05-10T07:38:42;21.90;;;13.20;;
26201;SDS011;13944;28.562;77.188;2023-05-10T07:41:09;30.40;;;13.95;;
26201;SDS011;13944;28.562;77.188;2023-05-10T07:43:36;22.00;;;13.57;;
26201;SDS011;13944;28.562;77.188;2023-05-10T07:46:02;24.55;;;14.13;;
26201;SDS011;13944;28.562;77.188;2023-05-10T07:48:29;23.83;;;12.93;;
26201;SDS011;13944;28.562;77.188;2023-05-10T07:50:56;22.98;;;13.60;;
26201;SDS011;13944;28.562;77.188;2023-05-10T07:53:26;24.13;;;14.90;;
26201;SDS011;13944;28.562;77.188;2023-05-10T07:55:59;26.77;;;14.05;;
26201;SDS011;13944;28.562;77.188;2023-05-10T07:58:45;25.42;;;14.10;;
26201;SDS011;13944;28.562;77.188;2023-05-10T08:01:12;26.55;;;14.30;;
26201;SDS011;13944;28.562;77.188;2023-05-10T08:03:38;27.27;;;12.40;;
26201;SDS011;13944;28.562;77.188;2023-05-10T08:06:05;23.00;;;13.48;;
26201;SDS011;13944;28.562;77.188;2023-05-10T08:08:32;27.83;;;13.48;;
26201;SDS011;13944;28.562;77.188;2023-05-10T08:10:58;21.23;;;12.70;;
26201;SDS011;13944;28.562;77.188;2023-05-10T08:13:25;25.70;;;12.20;;
26201;SDS011;13944;28.562;77.188;2023-05-10T08:15:51;21.85;;;12.38;;
26201;SDS011;13944;28.562;77.188;2023-05-10T08:18:18;24.40;;;12.68;;
26201;SDS011;13944;28.562;77.188;2023-05-10T08:20:45;21.70;;;12.13;;
26201;SDS011;13944;28.562;77.188;2023-05-10T08:23:12;19.80;;;12.03;;
26201;SDS011;13944;28.562;77.188;2023-05-10T08:25:39;18.55;;;12.13;;
26201;SDS011;13944;28.562;77.188;2023-05-10T08:28:05;27.33;;;13.32;;
26201;SDS011;13944;28.562;77.188;2023-05-10T08:30:32;20.95;;;13.43;;
26201;SDS011;13944;28.562;77.188;2023-05-10T08:32:58;24.85;;;13.52;;
26201;SDS011;13944;28.562;77.188;2023-05-10T08:35:25;23.90;;;14.07;;
26201;SDS011;13944;28.562;77.188;2023-05-10T08:37:52;21.52;;;13.57;;
26201;SDS011;13944;28.562;77.188;2023-05-10T08:40:21;26.70;;;12.93;;
26201;SDS011;13944;28.562;77.188;2023-05-10T08:42:51;22.38;;;13.32;;
26201;SDS011;13944;28.562;77.188;2023-05-10T08:45:22;25.13;;;13.98;;
26201;SDS011;13944;28.562;77.188;2023-05-10T08:47:49;29.27;;;13.73;;
26201;SDS011;13944;28.562;77.188;2023-05-10T08:50:16;26.58;;;13.15;;
26201;SDS011;13944;28.562;77.188;2023-05-10T08:52:43;20.73;;;12.98;;
26201;SDS011;13944;28.562;77.188;2023-05-10T08:55:13;23.13;;;13.10;;
26201;SDS011;13944;28.562;77.188;2023-05-10T08:57:39;25.42;;;12.45;;
26201;SDS011;13944;28.562;77.188;2023-05-10T09:00:06;25.17;;;12.70;;
26201;SDS011;13944;28.562;77.188;2023-05-10T09:02:34;23.50;;;12.55;;
26201;SDS011;13944;28.562;77.188;2023-05-10T09:05:01;24.08;;;12.60;;
26201;SDS011;13944;28.562;77.188;2023-05-10T09:07:29;21.42;;;11.20;;
26201;SDS011;13944;28.562;77.188;2023-05-10T09:09:57;26.55;;;11.70;;
26201;SDS011;13944;28.562;77.188;2023-05-10T09:12:24;22.60;;;10.65;;
26201;SDS011;13944;28.562;77.188;2023-05-10T09:14:50;22.63;;;11.27;;
26201;SDS011;13944;28.562;77.188;2023-05-10T09:17:18;21.65;;;11.38;;
26201;SDS011;13944;28.562;77.188;2023-05-10T09:19:45;22.95;;;11.93;;
26201;SDS011;13944;28.562;77.188;2023-05-10T09:22:12;22.50;;;10.73;;
26201;SDS011;13944;28.562;77.188;2023-05-10T09:24:38;19.67;;;11.13;;
26201;SDS011;13944;28.562;77.188;2023-05-10T09:27:10;22.90;;;10.68;;
26201;SDS011;13944;28.562;77.188;2023-05-10T09:29:41;22.05;;;10.70;;
26201;SDS011;13944;28.562;77.188;2023-05-10T09:32:08;18.30;;;9.70;;
26201;SDS011;13944;28.562;77.188;2023-05-10T09:34:35;23.90;;;11.63;;
26201;SDS011;13944;28.562;77.188;2023-05-10T09:37:05;18.48;;;10.93;;
26201;SDS011;13944;28.562;77.188;2023-05-10T09:39:33;24.23;;;10.98;;
26201;SDS011;13944;28.562;77.188;2023-05-10T09:42:05;24.60;;;11.93;;
26201;SDS011;13944;28.562;77.188;2023-05-10T09:44:32;26.40;;;11.77;;
26201;SDS011;13944;28.562;77.188;2023-05-10T09:47:00;24.00;;;11.25;;
26201;SDS011;13944;28.562;77.188;2023-05-10T09:49:26;23.73;;;11.38;;
26201;SDS011;13944;28.562;77.188;2023-05-10T09:52:06;20.35;;;10.43;;
26201;SDS011;13944;28.562;77.188;2023-05-10T09:54:33;23.85;;;10.98;;
26201;SDS011;13944;28.562;77.188;2023-05-10T09:57:00;20.38;;;10.32;;
26201;SDS011;13944;28.562;77.188;2023-05-10T09:59:27;20.45;;;9.57;;
26201;SDS011;13944;28.562;77.188;2023-05-10T10:01:58;25.50;;;10.40;;
26201;SDS011;13944;28.562;77.188;2023-05-10T10:04:25;19.80;;;9.88;;
26201;SDS011;13944;28.562;77.188;2023-05-10T10:07:02;20.42;;;10.48;;
26201;SDS011;13944;28.562;77.188;2023-05-10T10:09:29;21.48;;;9.88;;
26201;SDS011;13944;28.562;77.188;2023-05-10T10:11:55;18.20;;;9.70;;
26201;SDS011;13944;28.562;77.188;2023-05-10T10:14:23;25.13;;;11.18;;
26201;SDS011;13944;28.562;77.188;2023-05-10T10:16:50;24.45;;;10.38;;
26201;SDS011;13944;28.562;77.188;2023-05-10T10:19:18;22.38;;;10.40;;
26201;SDS011;13944;28.562;77.188;2023-05-10T10:21:46;23.58;;;11.35;;
26201;SDS011;13944;28.562;77.188;2023-05-10T10:24:13;21.63;;;10.57;;
26201;SDS011;13944;28.562;77.188;2023-05-10T10:26:39;20.15;;;10.68;;
26201;SDS011;13944;28.562;77.188;2023-05-10T10:29:31;23.67;;;10.27;;
26201;SDS011;13944;28.562;77.188;2023-05-10T10:34:28;23.30;;;10.13;;
26201;SDS011;13944;28.562;77.188;2023-05-10T10:36:56;25.25;;;11.07;;
26201;SDS011;13944;28.562;77.188;2023-05-10T10:39:23;21.30;;;10.77;;
26201;SDS011;13944;28.562;77.188;2023-05-10T10:41:53;19.40;;;10.85;;
26201;SDS011;13944;28.562;77.188;2023-05-10T10:49:26;21.92;;;10.55;;
26201;SDS011;13944;28.562;77.188;2023-05-10T10:54:38;18.17;;;9.80;;
26201;SDS011;13944;28.562;77.188;2023-05-10T10:57:11;19.48;;;8.95;;
26201;SDS011;13944;28.562;77.188;2023-05-10T10:59:42;24.92;;;9.48;;
26201;SDS011;13944;28.562;77.188;2023-05-10T11:02:09;18.50;;;9.38;;
26201;SDS011;13944;28.562;77.188;2023-05-10T11:04:42;19.13;;;9.73;;
26201;SDS011;13944;28.562;77.188;2023-05-10T11:07:20;18.05;;;9.18;;
26201;SDS011;13944;28.562;77.188;2023-05-10T11:09:48;24.90;;;9.43;;
26201;SDS011;13944;28.562;77.188;2023-05-10T11:12:14;16.58;;;8.90;;
26201;SDS011;13944;28.562;77.188;2023-05-10T11:14:41;20.17;;;10.25;;
26201;SDS011;13944;28.562;77.188;2023-05-10T11:17:24;19.23;;;9.23;;
26201;SDS011;13944;28.562;77.188;2023-05-10T11:20:09;20.30;;;9.75;;
26201;SDS011;13944;28.562;77.188;2023-05-10T11:22:49;17.05;;;9.38;;
26201;SDS011;13944;28.562;77.188;2023-05-10T11:25:19;22.10;;;10.15;;
26201;SDS011;13944;28.562;77.188;2023-05-10T11:27:47;19.75;;;9.38;;
26201;SDS011;13944;28.562;77.188;2023-05-10T11:30:14;25.98;;;9.68;;
26201;SDS011;13944;28.562;77.188;2023-05-10T11:32:41;21.60;;;9.20;;
26201;SDS011;13944;28.562;77.188;2023-05-10T11:35:08;21.27;;;9.02;;
26201;SDS011;13944;28.562;77.188;2023-05-10T11:37:35;17.73;;;8.77;;
26201;SDS011;13944;28.562;77.188;2023-05-10T11:40:03;19.05;;;10.23;;
26201;SDS011;13944;28.562;77.188;2023-05-10T11:42:30;24.05;;;9.68;;
26201;SDS011;13944;28.562;77.188;2023-05-10T11:44:56;24.70;;;9.70;;
26201;SDS011;13944;28.562;77.188;2023-05-10T11:47:23;25.67;;;10.65;;
26201;SDS011;13944;28.562;77.188;2023-05-10T11:49:49;22.73;;;9.57;;
26201;SDS011;13944;28.562;77.188;2023-05-10T11:52:16;25.42;;;9.35;;
26201;SDS011;13944;28.562;77.188;2023-05-10T11:54:52;23.17;;;9.75;;
26201;SDS011;13944;28.562;77.188;2023-05-10T11:57:19;17.83;;;9.13;;
26201;SDS011;13944;28.562;77.188;2023-05-10T11:59:46;20.75;;;10.50;;
26201;SDS011;13944;28.562;77.188;2023-05-10T12:02:13;23.20;;;11.18;;
26201;SDS011;13944;28.562;77.188;2023-05-10T12:04:40;24.25;;;10.77;;
26201;SDS011;13944;28.562;77.188;2023-05-10T12:07:07;23.25;;;10.15;;
26201;SDS011;13944;28.562;77.188;2023-05-10T12:09:34;20.77;;;9.65;;
26201;SDS011;13944;28.562;77.188;2023-05-10T12:12:00;22.52;;;9.35;;
26201;SDS011;13944;28.562;77.188;2023-05-10T12:14:28;25.75;;;8.85;;
26201;SDS011;13944;28.562;77.188;2023-05-10T12:16:58;23.55;;;9.07;;
26201;SDS011;13944;28.562;77.188;2023-05-10T12:19:25;19.88;;;9.95;;
26201;SDS011;13944;28.562;77.188;2023-05-10T12:21:51;23.40;;;9.75;;
26201;SDS011;13944;28.562;77.188;2023-05-10T12:24:18;23.58;;;9.70;;
26201;SDS011;13944;28.562;77.188;2023-05-10T12:26:46;18.27;;;8.93;;
26201;SDS011;13944;28.562;77.188;2023-05-10T12:34:32;22.92;;;8.82;;
26201;SDS011;13944;28.562;77.188;2023-05-10T12:37:00;23.00;;;9.88;;
26201;SDS011;13944;28.562;77.188;2023-05-10T12:39:37;28.58;;;10.10;;
26201;SDS011;13944;28.562;77.188;2023-05-10T12:42:04;21.80;;;9.68;;
26201;SDS011;13944;28.562;77.188;2023-05-10T12:44:31;22.92;;;10.48;;
26201;SDS011;13944;28.562;77.188;2023-05-10T12:46:58;28.55;;;10.70;;
26201;SDS011;13944;28.562;77.188;2023-05-10T12:49:24;25.52;;;10.32;;
26201;SDS011;13944;28.562;77.188;2023-05-10T12:51:51;22.13;;;10.68;;
26201;SDS011;13944;28.562;77.188;2023-05-10T12:54:18;26.15;;;11.10;;
26201;SDS011;13944;28.562;77.188;2023-05-10T12:56:45;28.20;;;11.30;;
26201;SDS011;13944;28.562;77.188;2023-05-10T12:59:11;31.67;;;11.52;;
26201;SDS011;13944;28.562;77.188;2023-05-10T13:01:38;25.85;;;11.55;;
26201;SDS011;13944;28.562;77.188;2023-05-10T13:04:04;32.30;;;11.43;;
26201;SDS011;13944;28.562;77.188;2023-05-10T13:06:31;33.50;;;12.27;;
26201;SDS011;13944;28.562;77.188;2023-05-10T13:08:58;32.10;;;11.75;;
26201;SDS011;13944;28.562;77.188;2023-05-10T13:11:24;36.72;;;11.70;;
26201;SDS011;13944;28.562;77.188;2023-05-10T13:13:51;29.27;;;12.48;;
26201;SDS011;13944;28.562;77.188;2023-05-10T13:16:18;30.33;;;12.65;;
26201;SDS011;13944;28.562;77.188;2023-05-10T13:18:44;33.72;;;12.98;;
26201;SDS011;13944;28.562;77.188;2023-05-10T13:21:11;34.53;;;13.02;;
26201;SDS011;13944;28.562;77.188;2023-05-10T13:23:38;37.08;;;12.85;;
26201;SDS011;13944;28.562;77.188;2023-05-10T13:26:04;33.85;;;13.38;;
26201;SDS011;13944;28.562;77.188;2023-05-10T13:28:31;39.10;;;15.38;;
26201;SDS011;13944;28.562;77.188;2023-05-10T13:30:57;41.05;;;16.23;;
26201;SDS011;13944;28.562;77.188;2023-05-10T13:33:25;50.08;;;15.50;;
26201;SDS011;13944;28.562;77.188;2023-05-10T13:35:51;56.28;;;16.25;;
26201;SDS011;13944;28.562;77.188;2023-05-10T13:38:18;48.88;;;17.80;;
26201;SDS011;13944;28.562;77.188;2023-05-10T13:40:44;54.05;;;17.52;;
26201;SDS011;13944;28.562;77.188;2023-05-10T13:43:11;62.97;;;18.90;;
26201;SDS011;13944;28.562;77.188;2023-05-10T13:45:38;54.08;;;18.85;;
26201;SDS011;13944;28.562;77.188;2023-05-10T13:48:04;55.30;;;20.35;;
26201;SDS011;13944;28.562;77.188;2023-05-10T13:50:32;66.40;;;24.75;;
26201;SDS011;13944;28.562;77.188;2023-05-10T13:52:58;64.10;;;26.75;;
26201;SDS011;13944;28.562;77.188;2023-05-10T13:55:25;70.32;;;31.08;;
26201;SDS011;13944;28.562;77.188;2023-05-10T13:57:52;87.75;;;38.85;;
26201;SDS011;13944;28.562;77.188;2023-05-10T14:00:18;137.25;;;61.83;;
26201;SDS011;13944;28.562;77.188;2023-05-10T14:02:45;135.15;;;62.63;;
26201;SDS011;13944;28.562;77.188;2023-05-10T14:05:12;186.23;;;85.30;;
26201;SDS011;13944;28.562;77.188;2023-05-10T14:07:38;208.07;;;90.85;;
26201;SDS011;13944;28.562;77.188;2023-05-10T14:10:05;195.50;;;89.15;;
26201;SDS011;13944;28.562;77.188;2023-05-10T14:12:32;185.70;;;83.35;;
26201;SDS011;13944;28.562;77.188;2023-05-10T14:14:58;186.18;;;77.20;;
26201;SDS011;13944;28.562;77.188;2023-05-10T14:17:25;147.70;;;61.90;;
26201;SDS011;13944;28.562;77.188;2023-05-10T14:19:52;141.35;;;53.85;;
26201;SDS011;13944;28.562;77.188;2023-05-10T14:22:18;131.55;;;50.85;;
26201;SDS011;13944;28.562;77.188;2023-05-10T14:24:45;117.82;;;49.22;;
26201;SDS011;13944;28.562;77.188;2023-05-10T14:27:12;119.45;;;51.33;;
26201;SDS011;13944;28.562;77.188;2023-05-10T14:29:39;118.85;;;51.22;;
26201;SDS011;13944;28.562;77.188;2023-05-10T14:32:06;118.78;;;53.55;;
26201;SDS011;13944;28.562;77.188;2023-05-10T14:34:33;140.40;;;62.03;;